createdAt,value
2022-11-07T00:01:20.289Z,10.50
2022-11-07T00:03:47.480Z,10.50
2022-11-07T00:06:14.673Z,10.50
2022-11-07T00:08:41.566Z,10.50
2022-11-07T00:11:08.658Z,10.50
2022-11-07T00:13:35.564Z,10.60
2022-11-07T00:16:08.298Z,10.60
2022-11-07T00:18:35.715Z,10.60
2022-11-07T00:21:07.488Z,10.60
2022-11-07T00:23:34.481Z,10.60
2022-11-07T00:26:06.067Z,10.60
2022-11-07T00:28:35.038Z,10.60
2022-11-07T00:31:02.076Z,10.60
2022-11-07T00:33:29.644Z,10.60
2022-11-07T00:35:56.506Z,10.60
2022-11-07T00:38:23.685Z,10.60
2022-11-07T00:41:02.034Z,10.60
2022-11-07T00:43:29.841Z,10.60
2022-11-07T00:45:57.727Z,10.60
2022-11-07T00:48:24.641Z,10.60
2022-11-07T00:50:51.789Z,10.70
2022-11-07T00:53:18.710Z,10.60
2022-11-07T00:55:46.312Z,10.60
2022-11-07T00:58:14.345Z,10.60
2022-11-07T01:00:42.264Z,10.70
2022-11-07T01:03:27.727Z,10.60
2022-11-07T01:06:02.937Z,10.60
2022-11-07T01:08:30.923Z,10.70
2022-11-07T01:10:59.299Z,10.70
2022-11-07T01:13:26.718Z,10.70
2022-11-07T01:15:53.926Z,10.70
2022-11-07T01:18:21.089Z,10.70
2022-11-07T01:20:49.590Z,10.60
2022-11-07T01:23:17.933Z,10.70
2022-11-07T01:25:45.386Z,10.60
2022-11-07T01:28:12.400Z,10.70
2022-11-07T01:30:41.094Z,10.60
2022-11-07T01:33:08.394Z,10.70
2022-11-07T01:35:36.280Z,10.70
2022-11-07T01:38:03.693Z,10.70
2022-11-07T01:40:30.726Z,10.70
2022-11-07T01:42:57.731Z,10.70
2022-11-07T01:45:29.846Z,10.70
2022-11-07T01:48:00.551Z,10.70
2022-11-07T01:50:27.918Z,10.70
2022-11-07T01:52:56.324Z,10.70
2022-11-07T01:55:32.409Z,10.70
2022-11-07T01:58:04.958Z,10.80
2022-11-07T02:00:33.343Z,10.80
2022-11-07T02:03:11.039Z,10.80
2022-11-07T02:05:43.909Z,10.80
2022-11-07T02:08:12.644Z,10.80
2022-11-07T02:10:40.997Z,10.80
2022-11-07T02:13:08.311Z,10.80
2022-11-07T02:15:36.619Z,10.80
2022-11-07T02:18:04.376Z,10.80
2022-11-07T02:20:31.352Z,10.80
2022-11-07T02:23:03.266Z,10.80
2022-11-07T02:25:30.459Z,10.90
2022-11-07T02:28:05.112Z,10.80
2022-11-07T02:30:34.754Z,10.90
2022-11-07T02:33:02.630Z,10.90
2022-11-07T02:35:39.754Z,10.90
2022-11-07T02:38:26.679Z,10.80
2022-11-07T02:41:21.490Z,10.80
2022-11-07T02:44:02.343Z,10.80
2022-11-07T02:46:31.148Z,10.80
2022-11-07T02:48:59.942Z,10.80
2022-11-07T02:51:27.348Z,10.90
2022-11-07T02:53:54.549Z,10.90
2022-11-07T02:56:22.439Z,10.80
2022-11-07T02:58:49.449Z,10.80
2022-11-07T03:01:16.359Z,10.80
2022-11-07T03:03:46.235Z,10.80
2022-11-07T03:06:15.911Z,10.80
2022-11-07T03:08:43.272Z,10.70
2022-11-07T03:11:11.302Z,10.60
2022-11-07T03:13:38.668Z,10.60
2022-11-07T03:18:48.078Z,10.50
2022-11-07T03:21:15.107Z,10.60
2022-11-07T03:23:42.021Z,10.50
2022-11-07T03:26:08.911Z,10.50
2022-11-07T03:28:35.891Z,10.50
2022-11-07T03:31:04.438Z,10.60
2022-11-07T03:33:31.725Z,10.80
2022-11-07T03:35:58.642Z,10.90
2022-11-07T03:38:25.744Z,10.90
2022-11-07T03:40:52.735Z,10.90
2022-11-07T03:43:19.662Z,11.00
2022-11-07T03:45:46.566Z,11.00
2022-11-07T03:48:13.472Z,11.00
2022-11-07T03:50:40.373Z,11.00
2022-11-07T03:53:07.333Z,11.00
2022-11-07T03:55:34.227Z,11.00
2022-11-07T03:58:01.105Z,11.00
2022-11-07T04:00:28.060Z,11.00
2022-11-07T04:02:55.086Z,10.90
2022-11-07T04:05:22.048Z,11.00
2022-11-07T04:07:48.926Z,11.00
2022-11-07T04:10:15.924Z,11.20
2022-11-07T04:13:02.633Z,11.20
2022-11-07T04:15:48.132Z,11.10
2022-11-07T04:18:15.100Z,11.10
2022-11-07T04:20:41.990Z,11.10
2022-11-07T04:23:08.928Z,11.00
2022-11-07T04:25:54.494Z,11.00
2022-11-07T04:28:21.388Z,11.00
2022-11-07T04:30:48.380Z,11.00
2022-11-07T04:33:15.538Z,11.10
2022-11-07T04:35:42.618Z,11.10
2022-11-07T04:38:09.508Z,11.10
2022-11-07T04:40:36.378Z,11.00
2022-11-07T04:43:08.968Z,11.10
2022-11-07T04:45:39.460Z,11.10
2022-11-07T04:48:06.777Z,11.10
2022-11-07T04:50:33.713Z,11.10
2022-11-07T04:53:00.609Z,11.10
2022-11-07T04:55:31.968Z,11.10
2022-11-07T04:57:59.217Z,11.10
2022-11-07T05:00:26.146Z,11.10
2022-11-07T05:02:53.078Z,11.00
2022-11-07T05:05:20.910Z,11.10
2022-11-07T05:07:48.281Z,11.00
2022-11-07T05:10:22.945Z,11.10
2022-11-07T05:12:49.920Z,11.00
2022-11-07T05:15:17.699Z,11.00
2022-11-07T05:17:45.268Z,11.00
2022-11-07T05:20:31.916Z,11.00
2022-11-07T05:23:18.883Z,11.00
2022-11-07T05:25:49.619Z,11.00
2022-11-07T05:28:28.013Z,11.00
2022-11-07T05:31:02.990Z,11.00
2022-11-07T05:33:30.039Z,10.90
2022-11-07T05:35:57.295Z,10.90
2022-11-07T05:38:24.165Z,10.80
2022-11-07T05:40:51.134Z,10.80
2022-11-07T05:43:18.322Z,10.80
2022-11-07T05:45:45.329Z,10.80
2022-11-07T05:48:13.607Z,10.90
2022-11-07T05:50:41.365Z,11.00
2022-11-07T05:53:08.926Z,11.00
2022-11-07T05:55:35.895Z,11.00
2022-11-07T05:58:09.365Z,11.10
2022-11-07T06:00:36.296Z,11.10
2022-11-07T06:03:03.485Z,11.10
2022-11-07T06:05:30.488Z,11.10
2022-11-07T06:07:57.579Z,11.10
2022-11-07T06:10:25.259Z,11.10
2022-11-07T06:13:03.563Z,11.10
2022-11-07T06:15:31.941Z,11.10
2022-11-07T06:18:03.490Z,11.10
2022-11-07T06:20:30.424Z,11.10
2022-11-07T06:23:01.846Z,11.00
2022-11-07T06:25:29.814Z,11.10
2022-11-07T06:28:01.761Z,11.10
2022-11-07T06:30:29.443Z,11.10
2022-11-07T06:32:56.385Z,11.00
2022-11-07T06:35:23.344Z,11.00
2022-11-07T06:37:50.224Z,11.10
2022-11-07T06:40:17.223Z,11.10
2022-11-07T06:42:44.067Z,11.10
2022-11-07T06:45:11.579Z,11.10
2022-11-07T06:47:38.590Z,11.10
2022-11-07T06:50:05.996Z,11.10
2022-11-07T06:52:32.859Z,11.10
2022-11-07T06:54:59.764Z,11.00
2022-11-07T06:57:26.622Z,11.10
2022-11-07T06:59:53.566Z,11.20
2022-11-07T07:02:43.870Z,11.20
2022-11-07T07:05:09.037Z,11.20
2022-11-07T07:07:35.935Z,11.20
2022-11-07T07:10:02.844Z,11.20
2022-11-07T07:12:29.684Z,11.20
2022-11-07T07:14:56.571Z,11.10
2022-11-07T07:17:23.462Z,11.20
2022-11-07T07:19:50.340Z,11.20
2022-11-07T07:22:17.795Z,11.20
2022-11-07T07:24:44.785Z,11.20
2022-11-07T07:27:11.691Z,11.20
2022-11-07T07:29:38.561Z,11.20
2022-11-07T07:32:05.490Z,11.20
2022-11-07T07:34:32.374Z,11.20
2022-11-07T07:36:59.263Z,11.20
2022-11-07T07:39:28.044Z,11.20
2022-11-07T07:41:55.047Z,11.20
2022-11-07T07:44:23.446Z,11.30
2022-11-07T07:46:50.346Z,11.30
2022-11-07T07:49:17.191Z,11.30
2022-11-07T07:51:44.088Z,11.30
2022-11-07T07:54:12.028Z,11.30
2022-11-07T07:56:39.769Z,11.30
2022-11-07T07:59:06.764Z,11.30
2022-11-07T08:01:33.965Z,11.30
2022-11-07T08:04:02.597Z,11.40
2022-11-07T08:06:30.584Z,11.50
2022-11-07T08:08:57.417Z,11.50
2022-11-07T08:11:24.340Z,11.60
2022-11-07T08:13:51.192Z,11.60
2022-11-07T08:16:18.234Z,11.70
2022-11-07T08:18:45.081Z,11.70
2022-11-07T08:21:12.022Z,11.70
2022-11-07T08:23:38.941Z,11.70
2022-11-07T08:26:06.236Z,11.80
2022-11-07T08:28:35.604Z,11.80
2022-11-07T08:31:11.999Z,11.90
2022-11-07T08:33:39.727Z,11.90
2022-11-07T08:36:07.484Z,12.00
2022-11-07T08:38:36.375Z,12.00
2022-11-07T08:41:04.481Z,12.00
2022-11-07T08:43:31.619Z,12.00
2022-11-07T08:45:58.592Z,12.00
2022-11-07T08:48:25.496Z,12.10
2022-11-07T08:50:54.647Z,12.00
2022-11-07T08:53:22.520Z,12.10
2022-11-07T08:55:49.519Z,12.10
2022-11-07T08:58:16.791Z,12.10
2022-11-07T09:00:43.942Z,12.20
2022-11-07T09:05:58.870Z,12.30
2022-11-07T09:08:26.111Z,12.30
2022-11-07T09:10:53.085Z,12.40
2022-11-07T09:13:20.844Z,12.50
2022-11-07T09:15:51.276Z,12.50
2022-11-07T09:18:18.963Z,12.60
2022-11-07T09:20:45.975Z,12.70
2022-11-07T09:23:13.058Z,12.90
2022-11-07T09:25:40.271Z,12.90
2022-11-07T09:28:07.237Z,12.90
2022-11-07T09:30:34.172Z,12.90
2022-11-07T09:33:01.516Z,12.80
2022-11-07T09:35:28.691Z,12.90
2022-11-07T09:37:55.623Z,13.10
2022-11-07T09:40:43.643Z,13.10
2022-11-07T09:43:10.509Z,13.10
2022-11-07T09:45:50.269Z,13.10
2022-11-07T09:48:23.299Z,13.20
2022-11-07T09:50:51.503Z,13.20
2022-11-07T09:53:34.047Z,13.20
2022-11-07T09:56:06.387Z,13.30
2022-11-07T09:58:43.604Z,13.30
2022-11-07T10:01:16.926Z,13.40
2022-11-07T10:04:10.168Z,13.40
2022-11-07T10:06:46.364Z,13.50
2022-11-07T10:09:32.646Z,13.70
2022-11-07T10:12:05.545Z,13.90
2022-11-07T10:15:00.066Z,13.90
2022-11-07T10:18:03.062Z,13.80
2022-11-07T10:20:34.831Z,13.70
2022-11-07T10:23:09.574Z,13.70
2022-11-07T10:25:46.090Z,13.80
2022-11-07T10:28:18.403Z,14.00
2022-11-07T10:30:49.270Z,14.00
2022-11-07T10:33:34.952Z,13.90
2022-11-07T10:36:30.546Z,13.80
2022-11-07T10:38:57.616Z,13.90
2022-11-07T10:41:27.037Z,13.80
2022-11-07T10:44:04.704Z,13.90
2022-11-07T10:46:39.796Z,14.00
2022-11-07T10:49:24.750Z,14.10
2022-11-07T10:51:52.918Z,14.00
2022-11-07T10:54:25.311Z,14.00
2022-11-07T10:57:23.097Z,14.00
2022-11-07T10:59:52.931Z,14.10
2022-11-07T11:02:21.848Z,14.20
2022-11-07T11:05:00.502Z,14.20
2022-11-07T11:07:40.685Z,14.20
2022-11-07T11:10:29.148Z,14.20
2022-11-07T11:12:56.823Z,14.10
2022-11-07T11:15:31.205Z,14.20
2022-11-07T11:18:07.538Z,14.10
2022-11-07T11:20:41.397Z,14.20
2022-11-07T11:23:21.121Z,14.20
2022-11-07T11:25:51.212Z,14.40
2022-11-07T11:28:28.044Z,14.40
2022-11-07T11:31:02.752Z,14.40
2022-11-07T11:33:59.436Z,14.40
2022-11-07T11:36:33.291Z,14.50
2022-11-07T11:39:02.489Z,14.50
2022-11-07T11:41:32.424Z,15.00
2022-11-07T11:44:43.205Z,14.70
2022-11-07T11:47:23.826Z,14.50
2022-11-07T11:49:58.807Z,14.30
2022-11-07T11:52:25.991Z,14.30
2022-11-07T11:54:55.574Z,14.30
2022-11-07T11:57:34.419Z,14.30
2022-11-07T12:00:17.870Z,14.30
2022-11-07T12:03:06.521Z,14.30
2022-11-07T12:06:12.004Z,14.30
2022-11-07T12:09:16.991Z,14.30
2022-11-07T12:12:23.456Z,14.20
2022-11-07T12:15:08.089Z,14.10
2022-11-07T12:17:49.556Z,14.10
2022-11-07T12:20:38.737Z,14.10
2022-11-07T12:23:18.108Z,14.10
2022-11-07T12:26:01.123Z,13.90
2022-11-07T12:28:57.353Z,13.80
2022-11-07T12:31:36.408Z,13.80
2022-11-07T12:34:18.217Z,13.90
2022-11-07T12:37:13.075Z,14.10
2022-11-07T12:39:49.186Z,14.10
2022-11-07T12:42:33.788Z,14.20
2022-11-07T12:45:15.968Z,14.10
2022-11-07T12:48:01.748Z,14.00
2022-11-07T12:50:52.104Z,13.90
2022-11-07T12:53:44.047Z,13.70
2022-11-07T12:56:15.546Z,13.50
2022-11-07T12:58:44.065Z,13.30
2022-11-07T13:01:18.530Z,13.30
2022-11-07T13:03:51.294Z,13.20
2022-11-07T13:06:33.634Z,13.10
2022-11-07T13:09:00.516Z,13.10
2022-11-07T13:11:45.607Z,13.20
2022-11-07T13:14:23.997Z,13.20
2022-11-07T13:17:01.943Z,13.10
2022-11-07T13:19:33.593Z,13.20
2022-11-07T13:22:03.664Z,13.10
2022-11-07T13:24:31.699Z,13.20
2022-11-07T13:26:59.560Z,13.30
2022-11-07T13:29:34.492Z,13.30
2022-11-07T13:32:09.541Z,13.30
2022-11-07T13:34:57.910Z,13.20
2022-11-07T13:37:41.111Z,13.10
2022-11-07T13:40:14.067Z,13.10
2022-11-07T13:42:43.967Z,13.00
2022-11-07T13:45:26.651Z,13.00
2022-11-07T13:47:58.036Z,13.10
2022-11-07T13:50:42.708Z,13.30
2022-11-07T13:53:27.592Z,13.30
2022-11-07T13:56:14.489Z,13.30
2022-11-07T13:58:43.227Z,13.30
2022-11-07T14:01:11.958Z,13.40
2022-11-07T14:03:39.045Z,13.30
2022-11-07T14:06:06.855Z,13.30
2022-11-07T14:08:37.507Z,13.20
2022-11-07T14:11:13.264Z,13.20
2022-11-07T14:13:41.706Z,13.10
2022-11-07T14:16:22.142Z,13.20
2022-11-07T14:18:52.180Z,13.10
2022-11-07T14:21:26.747Z,13.20
2022-11-07T14:23:54.274Z,13.20
2022-11-07T14:26:28.233Z,13.10
2022-11-07T14:28:56.897Z,13.20
2022-11-07T14:31:34.547Z,13.20
2022-11-07T14:34:20.403Z,13.20
2022-11-07T14:36:49.879Z,13.30
2022-11-07T14:39:17.801Z,13.40
2022-11-07T14:41:45.554Z,13.40
2022-11-07T14:44:53.335Z,13.40
2022-11-07T14:47:23.219Z,13.40
2022-11-07T14:49:51.912Z,13.40
2022-11-07T14:52:30.626Z,13.40
2022-11-07T14:55:13.318Z,13.40
2022-11-07T14:57:40.704Z,13.40
2022-11-07T15:00:12.864Z,13.40
2022-11-07T15:02:39.975Z,13.40
2022-11-07T15:05:39.189Z,13.30
2022-11-07T15:08:06.234Z,13.30
2022-11-07T15:10:36.830Z,13.30
2022-11-07T15:13:06.011Z,13.30
2022-11-07T15:15:35.339Z,13.30
2022-11-07T15:18:04.703Z,13.30
2022-11-07T15:20:33.645Z,13.30
2022-11-07T15:23:20.765Z,13.30
2022-11-07T15:26:05.619Z,13.20
2022-11-07T15:28:52.256Z,13.20
2022-11-07T15:31:28.139Z,13.10
2022-11-07T15:33:58.050Z,13.10
2022-11-07T15:36:25.927Z,13.10
2022-11-07T15:38:53.110Z,13.10
2022-11-07T15:41:20.104Z,13.10
2022-11-07T15:43:47.114Z,13.10
2022-11-07T15:46:39.237Z,13.10
2022-11-07T15:49:07.297Z,13.10
2022-11-07T15:51:34.256Z,13.10
2022-11-07T15:54:01.181Z,13.00
2022-11-07T15:56:29.183Z,13.10
2022-11-07T15:58:56.148Z,13.10
2022-11-07T16:01:23.747Z,13.00
2022-11-07T16:03:50.810Z,13.00
2022-11-07T16:06:28.897Z,13.00
2022-11-07T16:08:55.915Z,12.90
2022-11-07T16:11:23.570Z,12.90
2022-11-07T16:13:51.032Z,12.90
2022-11-07T16:16:24.265Z,12.90
2022-11-07T16:18:53.222Z,12.90
2022-11-07T16:21:20.921Z,12.90
2022-11-07T16:23:50.789Z,13.00
2022-11-07T16:26:27.428Z,12.90
2022-11-07T16:28:54.420Z,13.00
2022-11-07T16:31:21.277Z,13.00
2022-11-07T16:33:48.257Z,13.00
2022-11-07T16:36:25.328Z,13.00
2022-11-07T16:38:53.091Z,13.10
2022-11-07T16:41:20.059Z,13.10
2022-11-07T16:43:47.453Z,13.10
2022-11-07T16:46:19.990Z,13.10
2022-11-07T16:48:53.061Z,13.10
2022-11-07T16:51:21.605Z,13.00
2022-11-07T16:53:48.943Z,13.00
2022-11-07T16:56:20.650Z,13.00
2022-11-07T16:58:47.592Z,13.10
2022-11-07T17:01:14.749Z,13.10
2022-11-07T17:03:41.627Z,13.00
2022-11-07T17:06:22.021Z,13.10
2022-11-07T17:08:49.173Z,13.00
2022-11-07T17:11:17.899Z,13.10
2022-11-07T17:13:45.510Z,13.10
2022-11-07T17:16:20.981Z,13.10
2022-11-07T17:18:49.461Z,13.10
2022-11-07T17:21:46.684Z,13.10
2022-11-07T17:24:14.130Z,13.10
2022-11-07T17:26:41.771Z,13.20
2022-11-07T17:29:13.058Z,13.10
2022-11-07T17:31:41.782Z,13.20
2022-11-07T17:34:09.048Z,13.10
2022-11-07T17:36:38.570Z,13.10
2022-11-07T17:39:11.061Z,13.10
2022-11-07T17:41:39.723Z,13.10
2022-11-07T17:44:06.891Z,13.20
2022-11-07T17:46:35.471Z,13.20
2022-11-07T17:49:07.032Z,13.20
2022-11-07T17:51:37.716Z,13.30
2022-11-07T17:54:05.066Z,13.30
2022-11-07T17:56:33.249Z,13.30
2022-11-07T17:59:03.209Z,13.30
2022-11-07T18:01:35.504Z,13.30
2022-11-07T18:04:04.402Z,13.30
2022-11-07T18:06:35.408Z,13.30
2022-11-07T18:09:02.912Z,13.30
2022-11-07T18:11:30.611Z,13.30
2022-11-07T18:13:59.427Z,13.30
2022-11-07T18:16:29.827Z,13.30
2022-11-07T18:18:58.508Z,13.30
2022-11-07T18:21:26.340Z,13.30
2022-11-07T18:23:53.530Z,13.30
2022-11-07T18:26:25.294Z,13.30
2022-11-07T18:28:56.498Z,13.30
2022-11-07T18:31:23.892Z,13.30
2022-11-07T18:33:55.639Z,13.30
2022-11-07T18:36:22.580Z,13.20
2022-11-07T18:38:50.201Z,13.30
2022-11-07T18:41:22.529Z,13.30
2022-11-07T18:43:50.069Z,13.30
2022-11-07T18:46:19.304Z,13.20
2022-11-07T18:48:46.529Z,13.30
2022-11-07T18:51:23.522Z,13.20
2022-11-07T18:53:52.739Z,13.20
2022-11-07T18:56:21.400Z,13.20
2022-11-07T18:58:48.649Z,13.20
2022-11-07T19:01:21.739Z,13.10
2022-11-07T19:03:48.786Z,13.20
2022-11-07T19:06:17.876Z,13.10
2022-11-07T19:08:49.212Z,13.10
2022-11-07T19:11:19.601Z,13.10
2022-11-07T19:13:47.240Z,13.10
2022-11-07T19:16:17.658Z,13.10
2022-11-07T19:18:49.395Z,13.00
2022-11-07T19:21:20.007Z,13.00
2022-11-07T19:23:47.946Z,13.00
2022-11-07T19:26:14.955Z,13.00
2022-11-07T19:28:41.883Z,13.10
2022-11-07T19:31:12.629Z,13.20
2022-11-07T19:33:41.452Z,13.10
2022-11-07T19:36:14.007Z,13.10
2022-11-07T19:38:40.987Z,13.00
2022-11-07T19:41:08.714Z,13.00
2022-11-07T19:43:36.308Z,12.90
2022-11-07T19:46:15.743Z,13.00
2022-11-07T19:48:44.085Z,13.00
2022-11-07T19:51:20.044Z,12.90
2022-11-07T19:53:53.768Z,12.90
2022-11-07T19:56:21.422Z,13.00
2022-11-07T19:58:48.408Z,12.90
2022-11-07T20:01:18.761Z,12.90
2022-11-07T20:03:48.389Z,12.90
2022-11-07T20:06:17.454Z,12.80
2022-11-07T20:08:46.244Z,12.80
2022-11-07T20:11:18.986Z,12.90
2022-11-07T20:13:46.003Z,12.90
2022-11-07T20:16:13.613Z,12.90
2022-11-07T20:18:41.214Z,12.90
2022-11-07T20:21:15.079Z,13.00
2022-11-07T20:23:43.968Z,13.00
2022-11-07T20:26:14.114Z,13.00
2022-11-07T20:28:41.586Z,13.00
2022-11-07T20:31:09.314Z,13.10
2022-11-07T20:33:36.364Z,13.10
2022-11-07T20:36:06.835Z,13.20
2022-11-07T20:38:34.335Z,13.20
2022-11-07T20:41:02.934Z,13.20
2022-11-07T20:43:30.423Z,13.20
2022-11-07T20:45:57.292Z,13.20
2022-11-07T20:48:24.194Z,13.20
2022-11-07T20:50:51.094Z,13.20
2022-11-07T20:53:18.480Z,13.10
2022-11-07T20:55:46.386Z,13.20
2022-11-07T20:58:13.724Z,13.20
2022-11-07T21:00:41.382Z,13.10
2022-11-07T21:03:15.687Z,13.10
2022-11-07T21:05:42.874Z,13.20
2022-11-07T21:08:09.834Z,13.30
2022-11-07T21:10:36.804Z,13.30
2022-11-07T21:13:04.041Z,13.40
2022-11-07T21:15:30.892Z,13.40
2022-11-07T21:17:57.826Z,13.40
2022-11-07T21:20:25.292Z,13.40
2022-11-07T21:22:52.234Z,13.40
2022-11-07T21:25:19.147Z,13.40
2022-11-07T21:27:46.073Z,13.40
2022-11-07T21:30:13.346Z,13.50
2022-11-07T21:32:41.068Z,13.50
2022-11-07T21:35:09.288Z,13.50
2022-11-07T21:37:36.908Z,13.50
2022-11-07T21:40:04.122Z,13.50
2022-11-07T21:42:31.166Z,13.60
2022-11-07T21:44:58.122Z,13.60
2022-11-07T21:47:25.104Z,13.60
2022-11-07T21:49:52.192Z,13.50
2022-11-07T21:52:19.108Z,13.60
2022-11-07T21:54:46.492Z,13.60
2022-11-07T21:57:13.382Z,13.50
2022-11-07T21:59:40.271Z,13.50
2022-11-07T22:02:07.216Z,13.50
2022-11-07T22:04:35.482Z,13.50
2022-11-07T22:07:02.503Z,13.50
2022-11-07T22:09:29.502Z,13.50
2022-11-07T22:11:56.415Z,13.50
2022-11-07T22:14:23.510Z,13.50
2022-11-07T22:16:51.205Z,13.50
2022-11-07T22:19:18.746Z,13.50
2022-11-07T22:21:45.692Z,13.50
2022-11-07T22:24:12.673Z,13.50
2022-11-07T22:26:39.637Z,13.50
2022-11-07T22:29:06.549Z,13.50
2022-11-07T22:31:33.491Z,13.50
2022-11-07T22:34:01.241Z,13.50
2022-11-07T22:36:29.215Z,13.50
2022-11-07T22:38:57.684Z,13.50
2022-11-07T22:41:26.949Z,13.60
2022-11-07T22:43:54.461Z,13.60
2022-11-07T22:46:26.818Z,13.50
2022-11-07T22:48:54.021Z,13.50
2022-11-07T22:51:27.774Z,13.50
2022-11-07T22:54:00.405Z,13.50
2022-11-07T22:56:28.036Z,13.50
2022-11-07T22:58:55.291Z,13.50
2022-11-07T23:01:31.752Z,13.50
2022-11-07T23:03:59.261Z,13.50
2022-11-07T23:06:27.947Z,13.50
2022-11-07T23:08:57.834Z,13.50
2022-11-07T23:11:51.645Z,13.50
2022-11-07T23:14:21.468Z,13.40
2022-11-07T23:16:50.769Z,13.30
2022-11-07T23:19:20.142Z,13.30
2022-11-07T23:21:47.625Z,13.30
2022-11-07T23:24:14.578Z,13.30
2022-11-07T23:26:41.559Z,13.30
2022-11-07T23:29:20.571Z,13.40
2022-11-07T23:31:48.838Z,13.40
2022-11-07T23:34:16.527Z,13.40
2022-11-07T23:36:44.800Z,13.40
2022-11-07T23:39:18.326Z,13.50
2022-11-07T23:41:46.222Z,13.50
2022-11-07T23:44:13.981Z,13.40
2022-11-07T23:47:00.104Z,13.20
2022-11-07T23:49:35.915Z,13.20
2022-11-07T23:52:03.447Z,13.10
2022-11-07T23:54:49.190Z,13.10
2022-11-07T23:57:16.067Z,13.00
